sensor_id;sensor_type;location;lat;lon;timestamp;P1;durP1;ratioP1;P2;durP2;ratioP2
35562;SDS011;21665;40.108;18.302;2023-03-04T00:00:38;7.47;;;4.50;;
35562;SDS011;21665;40.108;18.302;2023-03-04T00:03:08;11.05;;;4.80;;
35562;SDS011;21665;40.108;18.302;2023-03-04T00:05:35;11.13;;;5.32;;
35562;SDS011;21665;40.108;18.302;2023-03-04T00:08:03;9.30;;;5.28;;
35562;SDS011;21665;40.108;18.302;2023-03-04T00:10:32;15.13;;;5.30;;
35562;SDS011;21665;40.108;18.302;2023-03-04T00:12:58;8.27;;;4.50;;
35562;SDS011;21665;40.108;18.302;2023-03-04T00:15:25;13.68;;;5.13;;
35562;SDS011;21665;40.108;18.302;2023-03-04T00:17:52;9.80;;;4.47;;
35562;SDS011;21665;40.108;18.302;2023-03-04T00:20:18;9.93;;;4.75;;
35562;SDS011;21665;40.108;18.302;2023-03-04T00:22:45;15.95;;;4.60;;
35562;SDS011;21665;40.108;18.302;2023-03-04T00:25:11;19.63;;;5.40;;
35562;SDS011;21665;40.108;18.302;2023-03-04T00:27:40;14.40;;;4.72;;
35562;SDS011;21665;40.108;18.302;2023-03-04T00:30:08;13.30;;;4.30;;
35562;SDS011;21665;40.108;18.302;2023-03-04T00:32:34;8.02;;;4.30;;
35562;SDS011;21665;40.108;18.302;2023-03-04T00:35:03;10.30;;;4.55;;
35562;SDS011;21665;40.108;18.302;2023-03-04T00:37:31;13.15;;;5.03;;
35562;SDS011;21665;40.108;18.302;2023-03-04T00:39:57;8.93;;;4.22;;
35562;SDS011;21665;40.108;18.302;2023-03-04T00:42:24;13.75;;;4.72;;
35562;SDS011;21665;40.108;18.302;2023-03-04T00:44:50;8.75;;;4.80;;
35562;SDS011;21665;40.108;18.302;2023-03-04T00:47:17;12.43;;;4.35;;
35562;SDS011;21665;40.108;18.302;2023-03-04T00:49:43;8.48;;;4.13;;
35562;SDS011;21665;40.108;18.302;2023-03-04T00:52:10;10.57;;;4.57;;
35562;SDS011;21665;40.108;18.302;2023-03-04T00:54:36;10.40;;;5.50;;
35562;SDS011;21665;40.108;18.302;2023-03-04T00:57:03;13.93;;;5.43;;
35562;SDS011;21665;40.108;18.302;2023-03-04T00:59:30;13.38;;;6.18;;
35562;SDS011;21665;40.108;18.302;2023-03-04T01:01:58;7.95;;;5.00;;
35562;SDS011;21665;40.108;18.302;2023-03-04T01:04:25;12.70;;;5.65;;
35562;SDS011;21665;40.108;18.302;2023-03-04T01:06:52;9.20;;;5.25;;
35562;SDS011;21665;40.108;18.302;2023-03-04T01:09:18;16.40;;;5.95;;
35562;SDS011;21665;40.108;18.302;2023-03-04T01:11:45;8.38;;;5.60;;
35562;SDS011;21665;40.108;18.302;2023-03-04T01:14:11;8.45;;;6.22;;
35562;SDS011;21665;40.108;18.302;2023-03-04T01:16:38;10.02;;;6.18;;
35562;SDS011;21665;40.108;18.302;2023-03-04T01:19:04;7.30;;;5.57;;
35562;SDS011;21665;40.108;18.302;2023-03-04T01:21:31;12.57;;;5.15;;
35562;SDS011;21665;40.108;18.302;2023-03-04T01:23:57;8.02;;;5.45;;
35562;SDS011;21665;40.108;18.302;2023-03-04T01:26:24;10.30;;;5.13;;
35562;SDS011;21665;40.108;18.302;2023-03-04T01:28:52;11.38;;;5.38;;
35562;SDS011;21665;40.108;18.302;2023-03-04T01:31:18;12.57;;;5.22;;
35562;SDS011;21665;40.108;18.302;2023-03-04T01:33:45;18.15;;;5.80;;
35562;SDS011;21665;40.108;18.302;2023-03-04T01:36:12;19.80;;;5.68;;
35562;SDS011;21665;40.108;18.302;2023-03-04T01:38:41;13.45;;;5.38;;
35562;SDS011;21665;40.108;18.302;2023-03-04T01:41:08;12.05;;;5.22;;
35562;SDS011;21665;40.108;18.302;2023-03-04T01:43:37;12.38;;;4.90;;
35562;SDS011;21665;40.108;18.302;2023-03-04T01:46:04;9.40;;;4.80;;
35562;SDS011;21665;40.108;18.302;2023-03-04T01:48:32;13.15;;;5.38;;
35562;SDS011;21665;40.108;18.302;2023-03-04T01:51:03;16.30;;;5.32;;
35562;SDS011;21665;40.108;18.302;2023-03-04T01:53:31;6.68;;;4.85;;
35562;SDS011;21665;40.108;18.302;2023-03-04T01:56:02;14.90;;;5.88;;
35562;SDS011;21665;40.108;18.302;2023-03-04T01:58:39;6.28;;;4.90;;
35562;SDS011;21665;40.108;18.302;2023-03-04T02:01:06;11.15;;;4.97;;
35562;SDS011;21665;40.108;18.302;2023-03-04T02:03:36;20.30;;;6.38;;
35562;SDS011;21665;40.108;18.302;2023-03-04T02:06:03;7.90;;;4.75;;
35562;SDS011;21665;40.108;18.302;2023-03-04T02:08:30;11.45;;;5.57;;
35562;SDS011;21665;40.108;18.302;2023-03-04T02:10:57;7.05;;;4.97;;
35562;SDS011;21665;40.108;18.302;2023-03-04T02:13:23;7.43;;;4.70;;
35562;SDS011;21665;40.108;18.302;2023-03-04T02:15:52;9.52;;;5.00;;
35562;SDS011;21665;40.108;18.302;2023-03-04T02:18:19;7.40;;;4.75;;
35562;SDS011;21665;40.108;18.302;2023-03-04T02:20:57;7.43;;;4.70;;
35562;SDS011;21665;40.108;18.302;2023-03-04T02:23:40;9.07;;;4.60;;
35562;SDS011;21665;40.108;18.302;2023-03-04T02:26:18;8.98;;;4.55;;
35562;SDS011;21665;40.108;18.302;2023-03-04T02:28:51;13.25;;;4.75;;
35562;SDS011;21665;40.108;18.302;2023-03-04T02:36:59;5.10;;;4.60;;
35562;SDS011;21665;40.108;18.302;2023-03-04T02:39:30;9.85;;;5.10;;
35562;SDS011;21665;40.108;18.302;2023-03-04T02:42:04;8.52;;;4.75;;
35562;SDS011;21665;40.108;18.302;2023-03-04T02:44:34;6.88;;;5.50;;
35562;SDS011;21665;40.108;18.302;2023-03-04T02:47:05;14.18;;;5.03;;
35562;SDS011;21665;40.108;18.302;2023-03-04T02:49:35;9.55;;;4.53;;
35562;SDS011;21665;40.108;18.302;2023-03-04T02:52:12;8.00;;;4.53;;
35562;SDS011;21665;40.108;18.302;2023-03-04T02:54:43;10.10;;;4.13;;
35562;SDS011;21665;40.108;18.302;2023-03-04T02:57:10;5.40;;;4.65;;
35562;SDS011;21665;40.108;18.302;2023-03-04T02:59:43;7.95;;;4.75;;
35562;SDS011;21665;40.108;18.302;2023-03-04T03:02:15;7.50;;;4.45;;
35562;SDS011;21665;40.108;18.302;2023-03-04T03:04:42;5.30;;;4.75;;
35562;SDS011;21665;40.108;18.302;2023-03-04T03:07:12;10.18;;;5.15;;
35562;SDS011;21665;40.108;18.302;2023-03-04T03:09:39;12.82;;;5.35;;
35562;SDS011;21665;40.108;18.302;2023-03-04T03:12:05;5.82;;;5.03;;
35562;SDS011;21665;40.108;18.302;2023-03-04T03:14:32;10.93;;;5.60;;
35562;SDS011;21665;40.108;18.302;2023-03-04T03:17:00;9.15;;;5.00;;
35562;SDS011;21665;40.108;18.302;2023-03-04T03:19:26;13.02;;;5.70;;
35562;SDS011;21665;40.108;18.302;2023-03-04T03:21:56;8.35;;;5.35;;
35562;SDS011;21665;40.108;18.302;2023-03-04T03:24:23;6.72;;;5.30;;
35562;SDS011;21665;40.108;18.302;2023-03-04T03:26:52;7.20;;;5.55;;
35562;SDS011;21665;40.108;18.302;2023-03-04T03:29:19;10.73;;;5.47;;
35562;SDS011;21665;40.108;18.302;2023-03-04T03:31:45;6.90;;;5.70;;
35562;SDS011;21665;40.108;18.302;2023-03-04T03:34:12;5.65;;;5.00;;
35562;SDS011;21665;40.108;18.302;2023-03-04T03:36:39;7.65;;;5.88;;
35562;SDS011;21665;40.108;18.302;2023-03-04T03:39:05;8.65;;;5.38;;
35562;SDS011;21665;40.108;18.302;2023-03-04T03:41:34;7.93;;;5.88;;
35562;SDS011;21665;40.108;18.302;2023-03-04T03:44:01;6.80;;;5.95;;
35562;SDS011;21665;40.108;18.302;2023-03-04T03:46:28;8.45;;;5.97;;
35562;SDS011;21665;40.108;18.302;2023-03-04T03:48:54;7.78;;;5.32;;
35562;SDS011;21665;40.108;18.302;2023-03-04T03:51:25;5.80;;;5.30;;
35562;SDS011;21665;40.108;18.302;2023-03-04T03:53:52;7.60;;;5.40;;
35562;SDS011;21665;40.108;18.302;2023-03-04T03:56:19;6.07;;;5.57;;
35562;SDS011;21665;40.108;18.302;2023-03-04T03:58:45;6.82;;;5.70;;
35562;SDS011;21665;40.108;18.302;2023-03-04T04:01:11;7.65;;;5.75;;
35562;SDS011;21665;40.108;18.302;2023-03-04T04:03:38;10.13;;;5.35;;
35562;SDS011;21665;40.108;18.302;2023-03-04T04:06:05;8.48;;;5.40;;
35562;SDS011;21665;40.108;18.302;2023-03-04T04:08:32;6.72;;;5.57;;
35562;SDS011;21665;40.108;18.302;2023-03-04T04:10:59;7.95;;;6.07;;
35562;SDS011;21665;40.108;18.302;2023-03-04T04:13:25;6.80;;;5.80;;
35562;SDS011;21665;40.108;18.302;2023-03-04T04:15:52;12.88;;;6.95;;
35562;SDS011;21665;40.108;18.302;2023-03-04T04:18:19;8.15;;;6.57;;
35562;SDS011;21665;40.108;18.302;2023-03-04T04:20:45;11.40;;;8.50;;
35562;SDS011;21665;40.108;18.302;2023-03-04T04:23:12;14.10;;;7.30;;
35562;SDS011;21665;40.108;18.302;2023-03-04T04:25:38;13.50;;;7.88;;
35562;SDS011;21665;40.108;18.302;2023-03-04T04:28:05;11.88;;;7.28;;
35562;SDS011;21665;40.108;18.302;2023-03-04T04:30:31;8.63;;;7.32;;
35562;SDS011;21665;40.108;18.302;2023-03-04T04:32:58;7.75;;;7.03;;
35562;SDS011;21665;40.108;18.302;2023-03-04T04:35:30;15.82;;;7.57;;
35562;SDS011;21665;40.108;18.302;2023-03-04T04:37:57;13.52;;;6.72;;
35562;SDS011;21665;40.108;18.302;2023-03-04T04:40:24;9.32;;;6.00;;
35562;SDS011;21665;40.108;18.302;2023-03-04T04:42:54;10.48;;;5.90;;
35562;SDS011;21665;40.108;18.302;2023-03-04T04:45:22;8.88;;;6.07;;
35562;SDS011;21665;40.108;18.302;2023-03-04T04:47:52;7.38;;;5.75;;
35562;SDS011;21665;40.108;18.302;2023-03-04T04:50:25;8.73;;;6.35;;
35562;SDS011;21665;40.108;18.302;2023-03-04T04:52:52;10.32;;;6.18;;
35562;SDS011;21665;40.108;18.302;2023-03-04T04:55:18;10.90;;;6.32;;
35562;SDS011;21665;40.108;18.302;2023-03-04T04:57:47;14.13;;;6.95;;
35562;SDS011;21665;40.108;18.302;2023-03-04T05:02:45;19.00;;;8.40;;
35562;SDS011;21665;40.108;18.302;2023-03-04T05:05:12;13.07;;;8.10;;
35562;SDS011;21665;40.108;18.302;2023-03-04T05:07:39;9.57;;;6.68;;
35562;SDS011;21665;40.108;18.302;2023-03-04T05:10:06;7.78;;;6.85;;
35562;SDS011;21665;40.108;18.302;2023-03-04T05:19:52;6.78;;;5.88;;
35562;SDS011;21665;40.108;18.302;2023-03-04T06:14:56;9.00;;;6.57;;
35562;SDS011;21665;40.108;18.302;2023-03-04T06:17:23;7.13;;;5.18;;
35562;SDS011;21665;40.108;18.302;2023-03-04T06:19:52;5.72;;;4.85;;
35562;SDS011;21665;40.108;18.302;2023-03-04T06:22:19;8.25;;;5.93;;
35562;SDS011;21665;40.108;18.302;2023-03-04T06:24:45;8.68;;;6.43;;
35562;SDS011;21665;40.108;18.302;2023-03-04T06:27:12;11.57;;;7.47;;
35562;SDS011;21665;40.108;18.302;2023-03-04T06:29:43;12.13;;;7.57;;
35562;SDS011;21665;40.108;18.302;2023-03-04T06:35:36;12.50;;;8.00;;
35562;SDS011;21665;40.108;18.302;2023-03-04T06:38:46;13.02;;;8.20;;
35562;SDS011;21665;40.108;18.302;2023-03-04T06:41:12;10.32;;;7.35;;
35562;SDS011;21665;40.108;18.302;2023-03-04T06:43:39;8.32;;;6.05;;
35562;SDS011;21665;40.108;18.302;2023-03-04T06:46:09;10.73;;;7.38;;
35562;SDS011;21665;40.108;18.302;2023-03-04T06:48:38;6.88;;;6.18;;
35562;SDS011;21665;40.108;18.302;2023-03-04T06:51:05;9.30;;;6.00;;
35562;SDS011;21665;40.108;18.302;2023-03-04T06:53:33;8.13;;;5.70;;
35562;SDS011;21665;40.108;18.302;2023-03-04T06:56:03;7.60;;;5.75;;
35562;SDS011;21665;40.108;18.302;2023-03-04T06:58:56;7.53;;;6.50;;
35562;SDS011;21665;40.108;18.302;2023-03-04T07:07:51;10.77;;;7.20;;
35562;SDS011;21665;40.108;18.302;2023-03-04T07:17:21;9.07;;;7.82;;
35562;SDS011;21665;40.108;18.302;2023-03-04T07:19:56;11.45;;;10.40;;
35562;SDS011;21665;40.108;18.302;2023-03-04T07:22:34;14.02;;;12.93;;
35562;SDS011;21665;40.108;18.302;2023-03-04T07:25:12;15.13;;;14.02;;
35562;SDS011;21665;40.108;18.302;2023-03-04T07:40:25;16.20;;;15.40;;
35562;SDS011;21665;40.108;18.302;2023-03-04T07:42:52;16.17;;;15.25;;
35562;SDS011;21665;40.108;18.302;2023-03-04T07:45:20;15.00;;;14.20;;
35562;SDS011;21665;40.108;18.302;2023-03-04T07:47:48;15.05;;;14.07;;
35562;SDS011;21665;40.108;18.302;2023-03-04T07:50:15;14.77;;;13.98;;
35562;SDS011;21665;40.108;18.302;2023-03-04T07:52:43;14.48;;;13.77;;
35562;SDS011;21665;40.108;18.302;2023-03-04T07:55:11;15.10;;;14.20;;
35562;SDS011;21665;40.108;18.302;2023-03-04T07:57:40;15.55;;;14.27;;
35562;SDS011;21665;40.108;18.302;2023-03-04T08:00:08;13.70;;;13.00;;
35562;SDS011;21665;40.108;18.302;2023-03-04T08:02:40;13.85;;;13.10;;
35562;SDS011;21665;40.108;18.302;2023-03-04T08:05:06;15.98;;;14.88;;
35562;SDS011;21665;40.108;18.302;2023-03-04T08:07:33;15.20;;;14.20;;
35562;SDS011;21665;40.108;18.302;2023-03-04T08:09:59;15.90;;;15.00;;
35562;SDS011;21665;40.108;18.302;2023-03-04T08:12:26;15.85;;;14.70;;
35562;SDS011;21665;40.108;18.302;2023-03-04T08:14:52;15.50;;;14.60;;
35562;SDS011;21665;40.108;18.302;2023-03-04T08:17:22;15.27;;;14.48;;
35562;SDS011;21665;40.108;18.302;2023-03-04T08:19:54;16.60;;;15.50;;
35562;SDS011;21665;40.108;18.302;2023-03-04T08:22:24;15.88;;;14.77;;
35562;SDS011;21665;40.108;18.302;2023-03-04T08:24:50;15.75;;;14.85;;
35562;SDS011;21665;40.108;18.302;2023-03-04T08:27:17;15.98;;;14.60;;
35562;SDS011;21665;40.108;18.302;2023-03-04T08:29:43;16.05;;;14.88;;
35562;SDS011;21665;40.108;18.302;2023-03-04T08:32:10;15.20;;;14.30;;
35562;SDS011;21665;40.108;18.302;2023-03-04T08:34:37;15.65;;;14.75;;
35562;SDS011;21665;40.108;18.302;2023-03-04T08:37:05;16.83;;;15.73;;
35562;SDS011;21665;40.108;18.302;2023-03-04T08:39:31;18.25;;;16.95;;
35562;SDS011;21665;40.108;18.302;2023-03-04T08:42:00;17.60;;;16.33;;
35562;SDS011;21665;40.108;18.302;2023-03-04T08:44:27;18.30;;;16.83;;
35562;SDS011;21665;40.108;18.302;2023-03-04T08:46:53;17.80;;;16.50;;
35562;SDS011;21665;40.108;18.302;2023-03-04T08:49:20;18.00;;;16.90;;
35562;SDS011;21665;40.108;18.302;2023-03-04T08:51:46;17.92;;;16.40;;
35562;SDS011;21665;40.108;18.302;2023-03-04T08:54:13;17.33;;;16.00;;
35562;SDS011;21665;40.108;18.302;2023-03-04T08:56:40;17.33;;;16.13;;
35562;SDS011;21665;40.108;18.302;2023-03-04T08:59:07;17.42;;;16.33;;
35562;SDS011;21665;40.108;18.302;2023-03-04T09:01:33;14.20;;;13.23;;
35562;SDS011;21665;40.108;18.302;2023-03-04T09:04:00;16.15;;;14.45;;
35562;SDS011;21665;40.108;18.302;2023-03-04T09:06:27;21.60;;;14.88;;
35562;SDS011;21665;40.108;18.302;2023-03-04T09:11:42;27.75;;;23.10;;
35562;SDS011;21665;40.108;18.302;2023-03-04T09:14:12;22.08;;;19.92;;
35562;SDS011;21665;40.108;18.302;2023-03-04T09:16:42;22.52;;;20.35;;
35562;SDS011;21665;40.108;18.302;2023-03-04T09:19:13;20.70;;;18.80;;
35562;SDS011;21665;40.108;18.302;2023-03-04T09:21:39;23.70;;;18.85;;
35562;SDS011;21665;40.108;18.302;2023-03-04T09:24:12;20.23;;;18.45;;
35562;SDS011;21665;40.108;18.302;2023-03-04T09:26:50;17.50;;;15.93;;
35562;SDS011;21665;40.108;18.302;2023-03-04T09:29:18;34.22;;;15.68;;
35562;SDS011;21665;40.108;18.302;2023-03-04T09:31:45;29.65;;;15.15;;
35562;SDS011;21665;40.108;18.302;2023-03-04T09:37:05;19.73;;;16.25;;
35562;SDS011;21665;40.108;18.302;2023-03-04T09:39:31;16.23;;;14.68;;
35562;SDS011;21665;40.108;18.302;2023-03-04T09:41:58;16.63;;;14.80;;
35562;SDS011;21665;40.108;18.302;2023-03-04T09:44:27;15.43;;;13.90;;
35562;SDS011;21665;40.108;18.302;2023-03-04T09:47:09;14.20;;;13.10;;
35562;SDS011;21665;40.108;18.302;2023-03-04T09:49:42;13.13;;;12.00;;
35562;SDS011;21665;40.108;18.302;2023-03-04T09:55:24;13.23;;;12.13;;
35562;SDS011;21665;40.108;18.302;2023-03-04T10:06:19;12.57;;;11.77;;
35562;SDS011;21665;40.108;18.302;2023-03-04T10:09:40;10.85;;;10.25;;
35562;SDS011;21665;40.108;18.302;2023-03-04T10:15:47;11.18;;;10.48;;
35562;SDS011;21665;40.108;18.302;2023-03-04T10:18:23;18.85;;;12.25;;
35562;SDS011;21665;40.108;18.302;2023-03-04T10:21:25;12.48;;;11.27;;
35562;SDS011;21665;40.108;18.302;2023-03-04T10:23:59;12.30;;;10.95;;
35562;SDS011;21665;40.108;18.302;2023-03-04T10:26:35;13.45;;;11.20;;
35562;SDS011;21665;40.108;18.302;2023-03-04T10:29:03;12.00;;;10.80;;
35562;SDS011;21665;40.108;18.302;2023-03-04T10:31:32;10.85;;;9.90;;
35562;SDS011;21665;40.108;18.302;2023-03-04T10:34:04;12.30;;;10.93;;
35562;SDS011;21665;40.108;18.302;2023-03-04T10:36:34;12.23;;;9.85;;
35562;SDS011;21665;40.108;18.302;2023-03-04T10:39:12;10.40;;;9.50;;
35562;SDS011;21665;40.108;18.302;2023-03-04T10:42:00;11.18;;;10.27;;
35562;SDS011;21665;40.108;18.302;2023-03-04T10:44:32;9.30;;;8.70;;
35562;SDS011;21665;40.108;18.302;2023-03-04T10:47:00;9.68;;;8.88;;
35562;SDS011;21665;40.108;18.302;2023-03-04T10:49:27;10.43;;;9.57;;
35562;SDS011;21665;40.108;18.302;2023-03-04T10:52:03;10.35;;;9.45;;
35562;SDS011;21665;40.108;18.302;2023-03-04T10:54:55;10.23;;;9.45;;
35562;SDS011;21665;40.108;18.302;2023-03-04T10:57:28;10.82;;;9.88;;
35562;SDS011;21665;40.108;18.302;2023-03-04T11:00:07;10.85;;;9.88;;
35562;SDS011;21665;40.108;18.302;2023-03-04T11:03:18;11.25;;;10.27;;
35562;SDS011;21665;40.108;18.302;2023-03-04T11:05:47;9.52;;;8.82;;
35562;SDS011;21665;40.108;18.302;2023-03-04T11:08:18;10.20;;;9.20;;
35562;SDS011;21665;40.108;18.302;2023-03-04T11:10:46;9.02;;;8.30;;
35562;SDS011;21665;40.108;18.302;2023-03-04T11:13:21;9.18;;;8.40;;
35562;SDS011;21665;40.108;18.302;2023-03-04T11:15:51;9.38;;;8.68;;
35562;SDS011;21665;40.108;18.302;2023-03-04T11:18:27;9.43;;;8.82;;
35562;SDS011;21665;40.108;18.302;2023-03-04T11:21:05;10.50;;;9.40;;
35562;SDS011;21665;40.108;18.302;2023-03-04T11:26:23;10.48;;;9.52;;
35562;SDS011;21665;40.108;18.302;2023-03-04T11:31:52;11.30;;;10.20;;
35562;SDS011;21665;40.108;18.302;2023-03-04T11:40:45;13.63;;;9.30;;
35562;SDS011;21665;40.108;18.302;2023-03-04T11:43:41;14.80;;;8.63;;
35562;SDS011;21665;40.108;18.302;2023-03-04T11:46:24;13.05;;;9.82;;
35562;SDS011;21665;40.108;18.302;2023-03-04T11:55:26;10.85;;;9.75;;
35562;SDS011;21665;40.108;18.302;2023-03-04T12:03:39;8.30;;;7.53;;
35562;SDS011;21665;40.108;18.302;2023-03-04T12:06:33;11.63;;;7.88;;
35562;SDS011;21665;40.108;18.302;2023-03-04T12:22:51;9.38;;;8.40;;
35562;SDS011;21665;40.108;18.302;2023-03-04T12:39:32;10.57;;;9.27;;
35562;SDS011;21665;40.108;18.302;2023-03-04T12:45:17;10.90;;;9.93;;
35562;SDS011;21665;40.108;18.302;2023-03-04T12:53:34;8.95;;;8.10;;
35562;SDS011;21665;40.108;18.302;2023-03-04T12:56:16;9.50;;;8.60;;
35562;SDS011;21665;40.108;18.302;2023-03-04T12:59:26;9.75;;;8.77;;
35562;SDS011;21665;40.108;18.302;2023-03-04T13:02:05;9.95;;;8.98;;
35562;SDS011;21665;40.108;18.302;2023-03-04T13:05:32;9.75;;;8.85;;
35562;SDS011;21665;40.108;18.302;2023-03-04T13:08:00;9.68;;;8.63;;
35562;SDS011;21665;40.108;18.302;2023-03-04T13:10:28;8.88;;;8.18;;
35562;SDS011;21665;40.108;18.302;2023-03-04T13:12:56;8.13;;;7.53;;
35562;SDS011;21665;40.108;18.302;2023-03-04T13:17:51;8.48;;;7.85;;
35562;SDS011;21665;40.108;18.302;2023-03-04T13:20:24;12.15;;;7.97;;
35562;SDS011;21665;40.108;18.302;2023-03-04T13:23:03;8.55;;;7.80;;
35562;SDS011;21665;40.108;18.302;2023-03-04T13:38:42;8.88;;;7.75;;
35562;SDS011;21665;40.108;18.302;2023-03-04T13:41:53;8.63;;;7.38;;
35562;SDS011;21665;40.108;18.302;2023-03-04T13:44:32;8.73;;;7.75;;
35562;SDS011;21665;40.108;18.302;2023-03-04T13:47:16;9.75;;;7.22;;
35562;SDS011;21665;40.108;18.302;2023-03-04T13:53:18;8.48;;;7.05;;
35562;SDS011;21665;40.108;18.302;2023-03-04T13:56:07;9.93;;;7.85;;
35562;SDS011;21665;40.108;18.302;2023-03-04T13:58:35;10.27;;;7.60;;
35562;SDS011;21665;40.108;18.302;2023-03-04T14:01:03;8.65;;;7.30;;
35562;SDS011;21665;40.108;18.302;2023-03-04T14:03:33;10.27;;;7.63;;
35562;SDS011;21665;40.108;18.302;2023-03-04T14:08:51;7.75;;;7.03;;
35562;SDS011;21665;40.108;18.302;2023-03-04T14:11:28;7.95;;;7.25;;
35562;SDS011;21665;40.108;18.302;2023-03-04T14:14:03;7.13;;;6.72;;
35562;SDS011;21665;40.108;18.302;2023-03-04T14:16:34;7.80;;;7.40;;
35562;SDS011;21665;40.108;18.302;2023-03-04T14:19:06;8.27;;;7.47;;
35562;SDS011;21665;40.108;18.302;2023-03-04T14:21:42;8.02;;;7.43;;
35562;SDS011;21665;40.108;18.302;2023-03-04T14:24:11;8.75;;;6.75;;
35562;SDS011;21665;40.108;18.302;2023-03-04T14:26:40;6.35;;;5.93;;
35562;SDS011;21665;40.108;18.302;2023-03-04T14:29:20;7.28;;;6.70;;
35562;SDS011;21665;40.108;18.302;2023-03-04T14:31:55;7.30;;;6.70;;
35562;SDS011;21665;40.108;18.302;2023-03-04T14:34:25;7.00;;;6.50;;
35562;SDS011;21665;40.108;18.302;2023-03-04T14:36:58;7.43;;;6.88;;
35562;SDS011;21665;40.108;18.302;2023-03-04T14:39:25;7.38;;;6.78;;
35562;SDS011;21665;40.108;18.302;2023-03-04T14:41:56;9.30;;;6.47;;
35562;SDS011;21665;40.108;18.302;2023-03-04T14:44:47;8.48;;;7.50;;
35562;SDS011;21665;40.108;18.302;2023-03-04T14:47:19;9.95;;;7.68;;
35562;SDS011;21665;40.108;18.302;2023-03-04T14:49:54;9.05;;;8.13;;
35562;SDS011;21665;40.108;18.302;2023-03-04T14:52:29;7.88;;;7.38;;
35562;SDS011;21665;40.108;18.302;2023-03-04T14:57:41;8.73;;;8.00;;
35562;SDS011;21665;40.108;18.302;2023-03-04T15:02:53;9.45;;;8.55;;
35562;SDS011;21665;40.108;18.302;2023-03-04T15:08:00;9.80;;;8.88;;
35562;SDS011;21665;40.108;18.302;2023-03-04T15:10:32;9.77;;;9.00;;
35562;SDS011;21665;40.108;18.302;2023-03-04T15:13:04;9.15;;;8.27;;
35562;SDS011;21665;40.108;18.302;2023-03-04T15:15:58;10.00;;;9.10;;
35562;SDS011;21665;40.108;18.302;2023-03-04T15:18:26;10.68;;;9.40;;
35562;SDS011;21665;40.108;18.302;2023-03-04T15:20:59;10.05;;;9.05;;
35562;SDS011;21665;40.108;18.302;2023-03-04T15:23:31;9.65;;;8.70;;
35562;SDS011;21665;40.108;18.302;2023-03-04T15:25:59;9.85;;;8.77;;
35562;SDS011;21665;40.108;18.302;2023-03-04T15:28:33;10.70;;;9.63;;
35562;SDS011;21665;40.108;18.302;2023-03-04T15:31:05;11.02;;;9.38;;
35562;SDS011;21665;40.108;18.302;2023-03-04T15:33:39;11.95;;;9.52;;
35562;SDS011;21665;40.108;18.302;2023-03-04T15:36:05;11.50;;;10.25;;
35562;SDS011;21665;40.108;18.302;2023-03-04T15:38:37;12.00;;;9.65;;
35562;SDS011;21665;40.108;18.302;2023-03-04T15:41:05;10.40;;;9.40;;
35562;SDS011;21665;40.108;18.302;2023-03-04T15:43:34;10.23;;;9.25;;
35562;SDS011;21665;40.108;18.302;2023-03-04T15:46:00;9.55;;;8.35;;
35562;SDS011;21665;40.108;18.302;2023-03-04T15:48:27;12.18;;;8.82;;
35562;SDS011;21665;40.108;18.302;2023-03-04T15:50:55;10.20;;;9.23;;
35562;SDS011;21665;40.108;18.302;2023-03-04T15:53:31;10.18;;;8.65;;
35562;SDS011;21665;40.108;18.302;2023-03-04T15:56:06;12.68;;;10.23;;
35562;SDS011;21665;40.108;18.302;2023-03-04T15:58:36;12.05;;;10.52;;
35562;SDS011;21665;40.108;18.302;2023-03-04T16:01:04;11.60;;;10.50;;
35562;SDS011;21665;40.108;18.302;2023-03-04T16:03:31;11.00;;;9.90;;
35562;SDS011;21665;40.108;18.302;2023-03-04T16:05:57;8.93;;;8.02;;
35562;SDS011;21665;40.108;18.302;2023-03-04T16:08:23;10.93;;;8.80;;
35562;SDS011;21665;40.108;18.302;2023-03-04T16:10:50;8.88;;;8.07;;
35562;SDS011;21665;40.108;18.302;2023-03-04T16:13:20;8.30;;;7.60;;
35562;SDS011;21665;40.108;18.302;2023-03-04T16:15:50;11.13;;;6.68;;
35562;SDS011;21665;40.108;18.302;2023-03-04T16:18:17;7.97;;;7.18;;
35562;SDS011;21665;40.108;18.302;2023-03-04T16:20:45;10.07;;;7.75;;
35562;SDS011;21665;40.108;18.302;2023-03-04T16:23:15;7.95;;;6.97;;
35562;SDS011;21665;40.108;18.302;2023-03-04T16:25:52;9.77;;;8.18;;
35562;SDS011;21665;40.108;18.302;2023-03-04T16:29:09;9.80;;;8.02;;
35562;SDS011;21665;40.108;18.302;2023-03-04T16:31:36;11.43;;;8.32;;
35562;SDS011;21665;40.108;18.302;2023-03-04T16:34:02;8.80;;;7.50;;
35562;SDS011;21665;40.108;18.302;2023-03-04T16:36:29;11.00;;;8.63;;
35562;SDS011;21665;40.108;18.302;2023-03-04T16:38:57;9.15;;;8.18;;
35562;SDS011;21665;40.108;18.302;2023-03-04T16:41:29;14.88;;;9.07;;
35562;SDS011;21665;40.108;18.302;2023-03-04T16:43:59;11.77;;;9.77;;
35562;SDS011;21665;40.108;18.302;2023-03-04T16:46:27;12.68;;;9.73;;
35562;SDS011;21665;40.108;18.302;2023-03-04T16:48:54;19.40;;;11.20;;
35562;SDS011;21665;40.108;18.302;2023-03-04T16:51:21;17.88;;;11.10;;
35562;SDS011;21665;40.108;18.302;2023-03-04T16:53:51;16.30;;;11.30;;
35562;SDS011;21665;40.108;18.302;2023-03-04T16:56:24;15.45;;;9.80;;
35562;SDS011;21665;40.108;18.302;2023-03-04T16:58:50;9.90;;;8.23;;
35562;SDS011;21665;40.108;18.302;2023-03-04T17:01:29;10.27;;;9.13;;
35562;SDS011;21665;40.108;18.302;2023-03-04T17:03:58;13.57;;;9.52;;
35562;SDS011;21665;40.108;18.302;2023-03-04T17:06:28;14.32;;;9.75;;
35562;SDS011;21665;40.108;18.302;2023-03-04T17:08:57;10.52;;;8.27;;
35562;SDS011;21665;40.108;18.302;2023-03-04T17:11:23;8.80;;;7.90;;
35562;SDS011;21665;40.108;18.302;2023-03-04T17:13:53;12.57;;;8.77;;
35562;SDS011;21665;40.108;18.302;2023-03-04T17:16:19;11.05;;;8.57;;
35562;SDS011;21665;40.108;18.302;2023-03-04T17:18:46;11.75;;;9.00;;
35562;SDS011;21665;40.108;18.302;2023-03-04T17:21:20;13.50;;;9.45;;
35562;SDS011;21665;40.108;18.302;2023-03-04T17:23:49;12.57;;;9.35;;
35562;SDS011;21665;40.108;18.302;2023-03-04T17:26:16;10.82;;;9.73;;
35562;SDS011;21665;40.108;18.302;2023-03-04T17:28:48;13.43;;;9.30;;
35562;SDS011;21665;40.108;18.302;2023-03-04T17:31:16;13.48;;;11.18;;
35562;SDS011;21665;40.108;18.302;2023-03-04T17:33:47;15.63;;;10.63;;
35562;SDS011;21665;40.108;18.302;2023-03-04T17:36:15;13.48;;;10.77;;
35562;SDS011;21665;40.108;18.302;2023-03-04T17:38:46;15.10;;;12.13;;
35562;SDS011;21665;40.108;18.302;2023-03-04T17:41:16;14.98;;;11.65;;
35562;SDS011;21665;40.108;18.302;2023-03-04T17:43:45;15.27;;;10.25;;
35562;SDS011;21665;40.108;18.302;2023-03-04T17:46:16;15.45;;;12.27;;
35562;SDS011;21665;40.108;18.302;2023-03-04T17:48:44;16.98;;;12.35;;
35562;SDS011;21665;40.108;18.302;2023-03-04T17:51:12;17.33;;;11.82;;
35562;SDS011;21665;40.108;18.302;2023-03-04T17:53:39;19.92;;;11.93;;
35562;SDS011;21665;40.108;18.302;2023-03-04T17:56:07;18.73;;;11.48;;
35562;SDS011;21665;40.108;18.302;2023-03-04T17:58:36;16.08;;;10.82;;
35562;SDS011;21665;40.108;18.302;2023-03-04T18:01:13;20.95;;;12.95;;
35562;SDS011;21665;40.108;18.302;2023-03-04T18:03:45;17.73;;;12.77;;
35562;SDS011;21665;40.108;18.302;2023-03-04T18:06:12;18.55;;;13.65;;
35562;SDS011;21665;40.108;18.302;2023-03-04T18:08:39;17.77;;;13.43;;
35562;SDS011;21665;40.108;18.302;2023-03-04T18:11:06;24.25;;;15.77;;
35562;SDS011;21665;40.108;18.302;2023-03-04T18:13:33;23.30;;;15.30;;